Time;durP1;ratioP1;P1;durP2;ratioP2;P2;SDS_P1;SDS_P2;PMS_P1;PMS_P2;Temp;Humidity;BMP_temperature;BMP_pressure;BME280_temperature;BME280_humidity;BME280_pressure;Samples;Min_cycle;Max_cycle;Signal;HPM_P1;HPM_P2
2021/09/05 00:02:12;;;;;;;;;;;;;;;11.44;100.00;101385.34;5073498;28;19930;-71
2021/09/05 00:04:38;;;;;;;;;;;;;;;11.45;100.00;101383.47;5074225;28;19931;-71
2021/09/05 00:07:06;;;;;;;;;;;;;;;11.45;100.00;101386.19;5055775;28;19929;-71
2021/09/05 00:09:32;;;;;;;;;;;;;;;11.44;100.00;101384.44;5073863;28;19978;-71
2021/09/05 00:11:59;;;;;;;;;;;;;;;11.39;100.00;101379.38;5073797;28;19982;-71
2021/09/05 00:14:26;;;;;;;;;;;;;;;11.34;100.00;101381.56;5073820;28;19924;-71
2021/09/05 00:16:53;;;;;;;;;;;;;;;11.30;100.00;101382.75;5073510;28;19928;-71
2021/09/05 00:19:19;;;;;;;;;;;;;;;11.28;100.00;101382.88;5073590;28;20451;-72
2021/09/05 00:21:46;;;;;;;;;;;;;;;11.31;100.00;101389.94;5073545;28;19928;-71
2021/09/05 00:24:12;;;;;;;;;;;;;;;11.34;100.00;101387.00;5055755;28;20023;-71
2021/09/05 00:26:38;;;;;;;;;;;;;;;11.32;100.00;101388.97;5073632;28;19924;-71
2021/09/05 00:29:06;;;;;;;;;;;;;;;11.29;100.00;101383.75;5073458;28;19925;-71
2021/09/05 00:31:32;;;;;;;;;;;;;;;11.30;100.00;101393.63;5055571;28;19928;-72
2021/09/05 00:34:01;;;;;;;;;;;;;;;11.29;100.00;101392.78;5073691;28;19932;-71
2021/09/05 00:36:28;;;;;;;;;;;;;;;11.26;100.00;101394.84;5073201;28;19997;-71
2021/09/05 00:38:55;;;;;;;;;;;;;;;11.26;100.00;101398.41;5073505;28;19931;-71
2021/09/05 00:41:21;;;;;;;;;;;;;;;11.26;100.00;101392.13;5055377;28;20107;-71
2021/09/05 00:43:52;;;;;;;;;;;;;;;11.22;100.00;101402.34;5055241;28;20045;-71
2021/09/05 00:46:21;;;;;;;;;;;;;;;11.23;100.00;101407.66;5055334;28;19932;-71
2021/09/05 00:48:47;;;;;;;;;;;;;;;11.23;100.00;101398.66;5073135;28;20452;-71
2021/09/05 00:51:13;;;;;;;;;;;;;;;11.18;100.00;101404.44;5055476;28;19956;-71
2021/09/05 00:53:40;;;;;;;;;;;;;;;11.18;100.00;101404.44;5055194;28;19924;-71
2021/09/05 00:56:06;;;;;;;;;;;;;;;11.18;100.00;101401.72;5073097;28;20019;-71
2021/09/05 00:58:35;;;;;;;;;;;;;;;11.17;100.00;101408.13;5072826;28;19924;-71
2021/09/05 01:01:02;;;;;;;;;;;;;;;11.15;100.00;101401.94;5054823;28;20414;-71
2021/09/05 01:03:30;;;;;;;;;;;;;;;11.16;100.00;101410.97;5073026;28;19956;-71
2021/09/05 01:05:57;;;;;;;;;;;;;;;11.16;100.00;101408.25;5072627;28;20398;-71
2021/09/05 01:08:24;;;;;;;;;;;;;;;11.10;100.00;101414.97;5055033;28;20288;-71
2021/09/05 01:10:50;;;;;;;;;;;;;;;11.06;100.00;101413.47;5072662;28;19995;-71
2021/09/05 01:13:20;;;;;;;;;;;;;;;11.01;100.00;101416.53;5054870;28;19940;-71
2021/09/05 01:15:46;;;;;;;;;;;;;;;10.92;100.00;101416.31;5054651;28;19969;-71
2021/09/05 01:18:19;;;;;;;;;;;;;;;10.84;100.00;101412.28;5054726;28;20300;-71
2021/09/05 01:20:58;;;;;;;;;;;;;;;10.81;100.00;101408.91;5054828;28;19925;-71
2021/09/05 01:23:30;;;;;;;;;;;;;;;10.76;100.00;101417.41;5072736;28;19930;-71
2021/09/05 01:26:15;;;;;;;;;;;;;;;10.74;100.00;101416.63;5072537;28;19931;-72
2021/09/05 01:29:01;;;;;;;;;;;;;;;10.71;100.00;101425.88;5072023;28;20399;-71
2021/09/05 01:31:49;;;;;;;;;;;;;;;10.68;100.00;101425.25;5053761;28;19931;-71
2021/09/05 01:34:34;;;;;;;;;;;;;;;10.64;100.00;101430.00;5072271;28;19932;-71
2021/09/05 01:37:36;;;;;;;;;;;;;;;10.58;100.00;101430.44;5072180;28;19967;-71
2021/09/05 01:40:34;;;;;;;;;;;;;;;10.54;100.00;101432.50;5072418;28;19924;-71
2021/09/05 01:43:35;;;;;;;;;;;;;;;10.53;100.00;101443.47;5054453;28;20189;-71
2021/09/05 01:46:21;;;;;;;;;;;;;;;10.53;100.00;101441.63;5072011;28;19925;-71
2021/09/05 01:49:07;;;;;;;;;;;;;;;10.55;100.00;101428.81;5072132;28;20027;-71
2021/09/05 01:51:51;;;;;;;;;;;;;;;10.57;100.00;101433.25;5054164;28;19948;-71
2021/09/05 01:54:35;;;;;;;;;;;;;;;10.55;100.00;101439.69;5053672;28;19936;-71
2021/09/05 01:57:20;;;;;;;;;;;;;;;10.53;100.00;101438.91;5071382;28;19929;-71
2021/09/05 02:00:22;;;;;;;;;;;;;;;10.56;100.00;101437.81;4990413;28;19926;-71
2021/09/05 02:02:58;;;;;;;;;;;;;;;10.59;100.00;101447.59;5044575;28;19982;-71
2021/09/05 02:05:49;;;;;;;;;;;;;;;10.62;100.00;101441.94;5053841;28;20346;-71
2021/09/05 02:08:44;;;;;;;;;;;;;;;10.59;100.00;101439.47;5071001;28;20015;-71
2021/09/05 02:11:45;;;;;;;;;;;;;;;10.59;100.00;101439.47;5071807;28;20093;-71
2021/09/05 02:14:29;;;;;;;;;;;;;;;10.54;100.00;101451.50;5070094;28;20011;-71
2021/09/05 02:17:11;;;;;;;;;;;;;;;10.54;100.00;101456.06;5070332;28;19924;-71
2021/09/05 02:19:52;;;;;;;;;;;;;;;10.61;100.00;101459.22;5053704;28;19946;-71
2021/09/05 02:22:44;;;;;;;;;;;;;;;10.57;100.00;101463.13;5071447;28;20026;-71
2021/09/05 02:25:29;;;;;;;;;;;;;;;10.54;100.00;101466.91;5053442;28;19924;-71
2021/09/05 02:28:17;;;;;;;;;;;;;;;10.55;100.00;101460.50;5053795;28;19931;-71
2021/09/05 02:31:12;;;;;;;;;;;;;;;10.53;100.00;101467.91;5016511;28;20265;-71
2021/09/05 02:33:58;;;;;;;;;;;;;;;10.54;100.00;101466.91;5053466;28;19925;-71
2021/09/05 02:36:52;;;;;;;;;;;;;;;10.51;100.00;101469.84;5053257;28;20396;-71
2021/09/05 02:39:35;;;;;;;;;;;;;;;10.43;100.00;101473.09;5053481;28;19925;-71
2021/09/05 02:42:23;;;;;;;;;;;;;;;10.40;100.00;101473.31;5036636;28;19932;-71
2021/09/05 02:45:08;;;;;;;;;;;;;;;10.44;100.00;101471.25;5071361;28;19932;-71
2021/09/05 02:47:55;;;;;;;;;;;;;;;10.47;100.00;101476.47;5053270;28;19925;-71
2021/09/05 02:50:39;;;;;;;;;;;;;;;10.50;100.00;101476.25;5071094;28;20061;-71
2021/09/05 02:53:27;;;;;;;;;;;;;;;10.59;100.00;101480.19;5070914;28;19925;-71
2021/09/05 02:56:12;;;;;;;;;;;;;;;10.51;100.00;101481.56;5071088;28;20395;-71
2021/09/05 02:58:55;;;;;;;;;;;;;;;10.47;100.00;101481.91;5053146;28;19931;-72
2021/09/05 03:01:42;;;;;;;;;;;;;;;10.41;100.00;101485.00;5053485;28;19924;-71
2021/09/05 03:04:28;;;;;;;;;;;;;;;10.32;100.00;101484.66;5053385;28;20017;-71
2021/09/05 03:07:21;;;;;;;;;;;;;;;10.25;100.00;101486.06;5047003;28;19931;-71
2021/09/05 03:10:15;;;;;;;;;;;;;;;10.18;100.00;101488.31;5068339;28;20387;-71
2021/09/05 03:13:01;;;;;;;;;;;;;;;10.15;100.00;101499.34;5070423;28;19924;-71
2021/09/05 03:15:58;;;;;;;;;;;;;;;10.13;100.00;101492.28;5069705;28;19967;-71
2021/09/05 03:19:03;;;;;;;;;;;;;;;10.09;100.00;101493.47;5070914;28;20019;-71
2021/09/05 03:21:52;;;;;;;;;;;;;;;10.06;100.00;101489.09;5068946;28;19929;-71
2021/09/05 03:24:35;;;;;;;;;;;;;;;10.02;100.00;101493.91;5053055;28;19959;-72
2021/09/05 03:27:36;;;;;;;;;;;;;;;9.98;100.00;101494.19;5069365;28;20409;-71
2021/09/05 03:30:25;;;;;;;;;;;;;;;9.89;100.00;101488.41;5042282;28;20023;-71
2021/09/05 03:33:14;;;;;;;;;;;;;;;9.84;100.00;101495.97;5070613;28;19925;-71
2021/09/05 03:36:06;;;;;;;;;;;;;;;9.84;100.00;101495.13;5052829;28;19932;-71
2021/09/05 03:38:54;;;;;;;;;;;;;;;9.78;100.00;101493.69;5052828;28;19924;-71
2021/09/05 03:41:34;;;;;;;;;;;;;;;9.72;100.00;101492.22;5069764;28;19931;-71
2021/09/05 03:44:21;;;;;;;;;;;;;;;9.66;100.00;101502.59;5070656;28;19978;-71
2021/09/05 03:47:23;;;;;;;;;;;;;;;9.62;100.00;101498.34;5008683;28;19929;-71
2021/09/05 03:50:24;;;;;;;;;;;;;;;9.57;100.00;101503.19;5052952;28;19924;-71
2021/09/05 03:52:51;;;;;;;;;;;;;;;9.50;100.00;101509.03;5052458;28;19932;-71
2021/09/05 03:55:21;;;;;;;;;;;;;;;9.47;100.00;101513.75;5054076;28;19948;-71
2021/09/05 03:57:49;;;;;;;;;;;;;;;9.40;100.00;101507.00;5072451;28;19956;-71
2021/09/05 04:00:19;;;;;;;;;;;;;;;9.35;100.00;101515.41;5055901;28;22548;-71
2021/09/05 04:02:46;;;;;;;;;;;;;;;9.29;100.00;101513.13;5055750;28;20392;-71
2021/09/05 04:05:14;;;;;;;;;;;;;;;9.24;100.00;101513.38;5056339;28;19928;-71
2021/09/05 04:07:44;;;;;;;;;;;;;;;9.21;100.00;101514.44;5073949;28;20453;-71
2021/09/05 04:10:10;;;;;;;;;;;;;;;9.18;100.00;101519.22;5073747;28;19924;-71
2021/09/05 04:12:37;;;;;;;;;;;;;;;9.13;100.00;101518.63;5074031;28;20022;-71
2021/09/05 04:15:04;;;;;;;;;;;;;;;9.09;100.00;101519.78;5073988;28;19928;-72
2021/09/05 04:17:31;;;;;;;;;;;;;;;9.09;100.00;101520.66;5073399;28;20018;-71
2021/09/05 04:19:58;;;;;;;;;;;;;;;9.05;100.00;101525.38;5073526;28;20415;-71
2021/09/05 04:22:24;;;;;;;;;;;;;;;9.08;100.00;101524.31;5073610;28;20365;-71
2021/09/05 04:24:50;;;;;;;;;;;;;;;9.06;100.00;101520.84;5073638;28;20015;-71
2021/09/05 04:27:17;;;;;;;;;;;;;;;9.04;100.00;101517.34;5073254;28;19924;-71
2021/09/05 04:29:43;;;;;;;;;;;;;;;9.07;100.00;101521.69;5056060;28;19994;-71
2021/09/05 04:32:09;;;;;;;;;;;;;;;9.03;100.00;101529.13;5073192;28;20018;-71
2021/09/05 04:34:37;;;;;;;;;;;;;;;9.01;100.00;101531.09;5073528;28;20031;-68
2021/09/05 04:37:03;;;;;;;;;;;;;;;9.03;100.00;101531.84;5073070;28;19964;-68
2021/09/05 04:39:30;;;;;;;;;;;;;;;9.04;100.00;101536.31;5073432;28;19925;-68
2021/09/05 04:41:56;;;;;;;;;;;;;;;9.07;100.00;101530.69;5072987;28;19964;-68
2021/09/05 04:44:22;;;;;;;;;;;;;;;9.10;100.00;101538.66;5073236;28;20358;-68
2021/09/05 04:46:49;;;;;;;;;;;;;;;9.14;100.00;101532.06;5073216;28;20015;-68
2021/09/05 04:49:15;;;;;;;;;;;;;;;9.23;100.00;101543.28;5073136;28;20019;-68
2021/09/05 04:51:42;;;;;;;;;;;;;;;9.23;100.00;101544.16;5073351;28;20019;-68
2021/09/05 04:54:09;;;;;;;;;;;;;;;9.30;100.00;101561.78;5073116;28;20019;-68
2021/09/05 04:56:35;;;;;;;;;;;;;;;9.35;100.00;101558.75;5072758;28;20023;-68
2021/09/05 04:59:01;;;;;;;;;;;;;;;9.40;100.00;101556.63;5073010;28;20019;-68
2021/09/05 05:01:27;;;;;;;;;;;;;;;9.49;100.00;101566.03;5054933;28;20026;-68
2021/09/05 05:03:54;;;;;;;;;;;;;;;9.55;100.00;101555.69;5073229;28;20573;-68
2021/09/05 05:06:20;;;;;;;;;;;;;;;9.65;100.00;101565.94;5054839;28;20019;-68
2021/09/05 05:08:48;;;;;;;;;;;;;;;9.65;100.00;101564.09;5072843;28;20017;-68
2021/09/05 05:11:16;;;;;;;;;;;;;;;9.68;100.00;101573.88;5072967;28;19929;-68
2021/09/05 05:13:42;;;;;;;;;;;;;;;9.71;100.00;101574.56;5072539;28;19978;-68
2021/09/05 05:16:08;;;;;;;;;;;;;;;9.78;100.00;101577.75;5072389;28;20391;-68
2021/09/05 05:18:34;;;;;;;;;;;;;;;9.85;100.00;101575.50;5072558;28;20356;-68
2021/09/05 05:21:01;;;;;;;;;;;;;;;9.91;100.00;101577.78;5072626;28;20031;-68
2021/09/05 05:23:29;;;;;;;;;;;;;;;10.04;100.00;101586.88;5072552;28;20018;-68
2021/09/05 05:25:56;;;;;;;;;;;;;;;10.16;100.00;101582.50;5072405;28;20350;-68
2021/09/05 05:28:22;;;;;;;;;;;;;;;10.25;100.00;101590.97;5072502;28;19967;-68
2021/09/05 05:30:49;;;;;;;;;;;;;;;10.40;100.00;101592.72;5072295;28;20491;-68
2021/09/05 05:33:15;;;;;;;;;;;;;;;10.50;100.00;101590.25;5072489;28;19925;-68
2021/09/05 05:35:41;;;;;;;;;;;;;;;10.66;100.00;101588.25;5071955;28;20418;-68
2021/09/05 05:38:08;;;;;;;;;;;;;;;10.84;100.00;101586.13;5072248;28;20011;-68
2021/09/05 05:40:35;;;;;;;;;;;;;;;11.11;100.00;101585.19;5072240;28;20348;-68
2021/09/05 05:43:03;;;;;;;;;;;;;;;11.39;100.00;101585.97;5072162;28;19924;-68
2021/09/05 05:45:30;;;;;;;;;;;;;;;11.51;100.00;101584.22;5072198;28;20027;-68
2021/09/05 05:47:56;;;;;;;;;;;;;;;11.61;100.00;101588.03;5071911;28;20023;-68
2021/09/05 05:50:24;;;;;;;;;;;;;;;11.64;100.00;101586.94;5054370;28;20388;-68
2021/09/05 05:52:51;;;;;;;;;;;;;;;11.64;100.00;101586.94;5071771;28;20015;-68
2021/09/05 05:55:17;;;;;;;;;;;;;;;11.68;100.00;101588.44;5054159;28;19960;-68
2021/09/05 05:57:43;;;;;;;;;;;;;;;11.73;100.00;101591.69;5071841;28;19925;-68
2021/09/05 06:00:12;;;;;;;;;;;;;;;11.81;100.00;101583.84;5071677;28;19975;-68
2021/09/05 06:02:41;;;;;;;;;;;;;;;12.11;100.00;101595.34;5072060;28;19964;-68
2021/09/05 06:05:07;;;;;;;;;;;;;;;12.33;100.00;101591.88;5071534;28;19975;-68
2021/09/05 06:07:34;;;;;;;;;;;;;;;12.45;100.00;101585.50;5071736;28;20016;-68
2021/09/05 06:10:00;;;;;;;;;;;;;;;12.69;100.00;101582.78;5071483;28;19972;-68
2021/09/05 06:12:26;;;;;;;;;;;;;;;12.89;100.00;101580.38;5071642;28;20015;-68
2021/09/05 06:14:52;;;;;;;;;;;;;;;13.26;100.00;101576.63;5071414;28;20042;-68
2021/09/05 06:17:21;;;;;;;;;;;;;;;13.41;100.00;101582.75;5070988;28;20031;-68
2021/09/05 06:19:48;;;;;;;;;;;;;;;13.32;100.00;101577.00;5071231;28;19932;-68
2021/09/05 06:22:14;;;;;;;;;;;;;;;13.23;100.00;101578.59;5071480;28;19971;-68
2021/09/05 06:24:40;;;;;;;;;;;;;;;13.51;100.00;101581.03;5071782;28;19929;-68
2021/09/05 06:27:06;;;;;;;;;;;;;;;13.79;100.00;101587.84;5071331;28;20333;-68
2021/09/05 06:29:33;;;;;;;;;;;;;;;13.97;100.00;101587.34;5071318;28;20023;-68
2021/09/05 06:32:00;;;;;;;;;;;;;;;14.07;100.00;101586.44;5071468;28;19924;-68
2021/09/05 06:34:27;;;;;;;;;;;;;;;14.15;100.00;101580.34;5071537;28;20356;-68
2021/09/05 06:36:53;;;;;;;;;;;;;;;14.45;100.00;101570.56;5071054;28;20426;-68
2021/09/05 06:39:20;;;;;;;;;;;;;;;14.46;100.00;101579.66;5071127;28;20019;-68
2021/09/05 06:41:46;;;;;;;;;;;;;;;14.66;100.00;101578.84;5071374;28;19963;-68
2021/09/05 06:44:12;;;;;;;;;;;;;;;14.78;100.00;101576.94;5070925;28;19962;-68
2021/09/05 06:46:38;;;;;;;;;;;;;;;14.96;100.00;101571.75;5070964;28;20376;-68
2021/09/05 06:49:05;;;;;;;;;;;;;;;15.20;100.00;101587.88;5071260;28;19979;-68
2021/09/05 06:51:32;;;;;;;;;;;;;;;15.77;100.00;101584.72;5071150;28;20015;-68
2021/09/05 06:53:59;;;;;;;;;;;;;;;16.04;100.00;101580.53;5071175;28;20132;-68
2021/09/05 06:56:25;;;;;;;;;;;;;;;15.89;100.00;101580.91;5070914;28;20023;-67
2021/09/05 06:58:51;;;;;;;;;;;;;;;15.88;100.00;101578.31;5071162;28;20022;-68
2021/09/05 07:01:18;;;;;;;;;;;;;;;15.85;100.00;101571.25;5070928;28;19987;-68
2021/09/05 07:03:44;;;;;;;;;;;;;;;15.89;100.00;101585.53;5070654;28;19953;-68
2021/09/05 07:06:10;;;;;;;;;;;;;;;15.67;100.00;101583.81;5070585;28;19935;-67
2021/09/05 07:08:38;;;;;;;;;;;;;;;15.56;100.00;101582.03;5071025;28;20419;-67
2021/09/05 07:11:04;;;;;;;;;;;;;;;15.58;100.00;101591.00;5071092;28;20366;-67
2021/09/05 07:13:30;;;;;;;;;;;;;;;15.46;100.00;101589.31;5070649;28;20049;-67
2021/09/05 07:15:57;;;;;;;;;;;;;;;15.70;100.00;101589.88;5070805;28;19967;-68
2021/09/05 07:18:24;;;;;;;;;;;;;;;15.80;100.00;101592.69;5070849;28;19929;-67
2021/09/05 07:20:50;;;;;;;;;;;;;;;16.00;100.00;101598.25;5070747;28;19928;-68
2021/09/05 07:23:16;;;;;;;;;;;;;;;16.27;100.00;101602.22;5070857;28;20015;-68
2021/09/05 07:25:44;;;;;;;;;;;;;;;16.15;100.00;101598.72;5070361;28;20363;-68
2021/09/05 07:28:10;;;;;;;;;;;;;;;16.65;100.00;101597.78;5070295;28;20028;-68
2021/09/05 07:30:36;;;;;;;;;;;;;;;17.27;100.00;101597.50;5072458;28;19970;-68
2021/09/05 07:33:03;;;;;;;;;;;;;;;17.35;100.00;101603.97;5074670;28;20470;-68
2021/09/05 07:35:29;;;;;;;;;;;;;;;17.19;100.00;101606.44;5074615;28;20376;-68
2021/09/05 07:37:55;;;;;;;;;;;;;;;17.01;100.00;101612.69;5074025;28;20015;-68
2021/09/05 07:40:21;;;;;;;;;;;;;;;17.27;100.00;101606.56;5074612;28;19925;-68
2021/09/05 07:42:49;;;;;;;;;;;;;;;17.00;100.00;101613.69;5074055;28;20362;-68
2021/09/05 07:45:15;;;;;;;;;;;;;;;17.62;100.00;101618.75;5074467;28;19932;-68
2021/09/05 07:47:42;;;;;;;;;;;;;;;17.60;100.00;101619.91;5074251;28;19954;-68
2021/09/05 07:50:09;;;;;;;;;;;;;;;17.12;100.00;101622.63;5074173;28;20019;-68
2021/09/05 07:52:35;;;;;;;;;;;;;;;17.36;100.00;101618.56;5074428;28;20022;-68
2021/09/05 07:55:01;;;;;;;;;;;;;;;17.15;100.00;101619.59;5074059;28;20027;-68
2021/09/05 07:57:28;;;;;;;;;;;;;;;17.53;100.00;101617.78;5073988;28;19929;-68
2021/09/05 07:59:55;;;;;;;;;;;;;;;17.09;100.00;101625.69;5073932;28;19968;-68
2021/09/05 08:02:22;;;;;;;;;;;;;;;17.48;100.00;101630.25;5074190;28;20344;-68
2021/09/05 08:04:48;;;;;;;;;;;;;;;17.33;100.00;101636.19;5074375;28;20024;-68
2021/09/05 08:07:14;;;;;;;;;;;;;;;17.23;100.00;101638.91;5073546;28;20032;-68
2021/09/05 08:09:40;;;;;;;;;;;;;;;17.16;100.00;101636.94;5073498;28;19925;-68
2021/09/05 08:12:07;;;;;;;;;;;;;;;17.12;100.00;101641.84;5073782;28;19970;-68
2021/09/05 08:14:34;;;;;;;;;;;;;;;17.24;100.00;101648.88;5073741;28;19925;-66
2021/09/05 08:17:02;;;;;;;;;;;;;;;17.36;100.00;101643.25;5073494;28;19924;-66
2021/09/05 08:19:28;;;;;;;;;;;;;;;17.28;100.00;101645.88;5073673;28;20339;-66
2021/09/05 08:21:54;;;;;;;;;;;;;;;17.00;100.00;101637.53;5073572;28;20019;-65
2021/09/05 08:24:21;;;;;;;;;;;;;;;17.40;100.00;101636.47;5073464;28;19964;-66
2021/09/05 08:26:47;;;;;;;;;;;;;;;17.70;100.00;101643.63;5073568;28;19963;-65
2021/09/05 08:29:13;;;;;;;;;;;;;;;18.19;100.00;101648.91;5073461;28;20344;-66
2021/09/05 08:31:39;;;;;;;;;;;;;;;18.37;100.00;101659.97;5073936;28;20019;-66
2021/09/05 08:34:07;;;;;;;;;;;;;;;18.35;100.00;101655.66;5073511;28;19924;-65
2021/09/05 08:36:33;;;;;;;;;;;;;;;19.04;100.00;101656.03;5073500;28;19966;-66
2021/09/05 08:39:00;;;;;;;;;;;;;;;18.80;100.00;101653.88;5073257;28;20030;-66
2021/09/05 08:41:26;;;;;;;;;;;;;;;19.33;100.00;101657.69;5054961;28;20510;-66
2021/09/05 08:43:53;;;;;;;;;;;;;;;19.69;100.00;101652.09;5073443;28;19951;-66
2021/09/05 08:46:20;;;;;;;;;;;;;;;20.21;100.00;101649.28;5073139;28;20023;-66
2021/09/05 08:48:49;;;;;;;;;;;;;;;20.66;100.00;101652.72;5073298;28;19924;-66
2021/09/05 08:51:17;;;;;;;;;;;;;;;20.66;100.00;101657.38;5073105;28;19931;-66
2021/09/05 08:53:44;;;;;;;;;;;;;;;20.06;100.00;101651.81;5073232;28;19984;-66
2021/09/05 08:56:11;;;;;;;;;;;;;;;20.57;100.00;101664.75;5072577;28;19933;-66
2021/09/05 08:58:37;;;;;;;;;;;;;;;20.38;100.00;101661.25;5072998;28;19924;-66
2021/09/05 09:01:15;;;;;;;;;;;;;;;20.06;100.00;101665.56;5072942;28;19952;-66
2021/09/05 09:03:41;;;;;;;;;;;;;;;20.74;100.00;101662.94;5072834;28;19924;-66
2021/09/05 09:06:08;;;;;;;;;;;;;;;20.34;100.00;101678.28;5072683;28;20023;-66
2021/09/05 09:08:35;;;;;;;;;;;;;;;20.51;100.00;101679.19;5072453;28;20011;-66
2021/09/05 09:11:02;;;;;;;;;;;;;;;21.26;100.00;101666.41;5072777;28;20011;-66
2021/09/05 09:13:29;;;;;;;;;;;;;;;21.40;100.00;101665.72;5072643;28;19936;-66
2021/09/05 09:15:56;;;;;;;;;;;;;;;21.68;100.00;101663.47;5072517;28;19952;-65
2021/09/05 09:18:26;;;;;;;;;;;;;;;22.05;100.00;101669.44;5072596;28;20011;-65
2021/09/05 09:20:54;;;;;;;;;;;;;;;22.03;100.00;101661.34;5072630;28;19967;-65
2021/09/05 09:23:21;;;;;;;;;;;;;;;21.86;100.00;101665.16;5072579;28;19924;-65
2021/09/05 09:25:53;;;;;;;;;;;;;;;21.80;100.00;101671.41;5072450;28;20487;-66
2021/09/05 09:28:24;;;;;;;;;;;;;;;22.23;100.00;101658.13;5072424;28;19935;-66
2021/09/05 09:30:50;;;;;;;;;;;;;;;21.88;100.00;101657.56;5072385;28;20447;-65
2021/09/05 09:33:19;;;;;;;;;;;;;;;21.36;100.00;101656.06;5072129;28;19967;-65
2021/09/05 09:35:50;;;;;;;;;;;;;;;21.99;100.00;101653.56;5072279;28;20344;-65
2021/09/05 09:38:16;;;;;;;;;;;;;;;22.44;100.00;101659.47;5071865;28;19928;-65
2021/09/05 09:40:43;;;;;;;;;;;;;;;22.66;100.00;101660.53;5072517;28;20015;-66
2021/09/05 09:43:17;;;;;;;;;;;;;;;23.10;100.00;101659.03;5072082;28;19963;-66
2021/09/05 09:45:43;;;;;;;;;;;;;;;23.56;100.00;101659.00;5072063;28;20011;-65
2021/09/05 09:48:10;;;;;;;;;;;;;;;23.37;100.00;101658.50;5071418;28;20116;-65
2021/09/05 09:50:41;;;;;;;;;;;;;;;23.00;100.00;101664.84;5072033;28;19928;-65
2021/09/05 09:53:08;;;;;;;;;;;;;;;22.59;100.00;101665.94;5071396;28;20027;-66
2021/09/05 09:55:36;;;;;;;;;;;;;;;23.07;100.00;101663.03;5071761;28;19986;-65
2021/09/05 09:58:03;;;;;;;;;;;;;;;23.71;100.00;101661.81;5071631;28;19978;-66
2021/09/05 10:00:31;;;;;;;;;;;;;;;23.70;98.74;101665.63;5071897;28;20471;-66
2021/09/05 10:02:57;;;;;;;;;;;;;;;23.40;100.00;101657.25;5071892;28;19925;-66
2021/09/05 10:05:24;;;;;;;;;;;;;;;23.15;100.00;101660.22;5071525;28;19963;-65
2021/09/05 10:07:51;;;;;;;;;;;;;;;23.24;99.99;101650.81;5071398;28;20008;-66
2021/09/05 10:10:17;;;;;;;;;;;;;;;23.46;100.00;101650.09;5071707;28;19924;-66
2021/09/05 10:12:44;;;;;;;;;;;;;;;23.95;100.00;101643.22;5071677;28;20650;-66
2021/09/05 10:15:11;;;;;;;;;;;;;;;24.17;100.00;101635.81;5071564;28;20027;-65
2021/09/05 10:17:39;;;;;;;;;;;;;;;24.08;92.46;101635.09;5070777;28;20035;-66
2021/09/05 10:20:06;;;;;;;;;;;;;;;23.83;96.69;101651.09;5071444;28;19925;-65
2021/09/05 10:22:32;;;;;;;;;;;;;;;24.12;94.27;101643.84;5071453;28;20019;-65
2021/09/05 10:25:00;;;;;;;;;;;;;;;24.08;95.89;101646.19;5071041;28;20015;-65
2021/09/05 10:27:30;;;;;;;;;;;;;;;24.09;96.41;101647.88;5071290;28;20439;-66
2021/09/05 10:30:23;;;;;;;;;;;;;;;24.54;98.60;101642.25;5071352;28;20038;-66
2021/09/05 10:32:52;;;;;;;;;;;;;;;24.67;92.55;101639.69;5012814;28;20264;-65
2021/09/05 10:35:28;;;;;;;;;;;;;;;25.01;92.09;101642.78;5071147;28;19935;-65
2021/09/05 10:38:09;;;;;;;;;;;;;;;24.39;93.38;101639.53;5071374;28;20284;-66
2021/09/05 10:40:39;;;;;;;;;;;;;;;23.77;93.95;101640.78;5052432;28;19932;-65
2021/09/05 10:43:05;;;;;;;;;;;;;;;24.24;94.70;101637.63;5071263;28;19931;-65
2021/09/05 10:45:32;;;;;;;;;;;;;;;24.15;95.79;101636.03;5071249;28;20417;-65
2021/09/05 10:48:00;;;;;;;;;;;;;;;23.74;95.49;101644.78;5070655;28;20027;-65
2021/09/05 10:50:33;;;;;;;;;;;;;;;24.27;100.00;101630.84;5071242;28;19925;-65
2021/09/05 10:53:13;;;;;;;;;;;;;;;24.12;95.75;101636.41;5071039;28;20358;-65
2021/09/05 10:55:55;;;;;;;;;;;;;;;23.29;97.42;101641.94;5071015;28;19925;-65
2021/09/05 10:58:34;;;;;;;;;;;;;;;22.54;100.00;101635.19;5069591;28;19929;-65
2021/09/05 11:01:04;;;;;;;;;;;;;;;22.84;100.00;101638.97;5071397;28;20019;-65
2021/09/05 11:03:31;;;;;;;;;;;;;;;23.53;100.00;101632.53;5071129;28;20410;-64
2021/09/05 11:06:16;;;;;;;;;;;;;;;23.62;99.05;101640.75;5074868;28;20015;-65
2021/09/05 11:08:43;;;;;;;;;;;;;;;23.93;97.39;101637.00;5074913;28;19931;-65
2021/09/05 11:11:09;;;;;;;;;;;;;;;23.97;100.00;101630.88;5074663;28;19936;-65
2021/09/05 11:13:46;;;;;;;;;;;;;;;23.95;99.34;101630.19;5074991;28;20427;-65
2021/09/05 11:16:14;;;;;;;;;;;;;;;24.28;93.39;101631.69;5074248;28;19924;-65
2021/09/05 11:18:42;;;;;;;;;;;;;;;23.61;94.26;101631.59;5075003;28;19924;-65
2021/09/05 11:21:22;;;;;;;;;;;;;;;24.52;94.71;101630.50;5074624;28;19936;-65
2021/09/05 11:23:49;;;;;;;;;;;;;;;24.17;100.00;101625.59;5075004;28;19924;-67
2021/09/05 11:26:16;;;;;;;;;;;;;;;24.30;96.72;101624.06;5074698;28;19924;-65
2021/09/05 11:28:44;;;;;;;;;;;;;;;24.12;94.73;101630.88;5073255;28;19931;-65
2021/09/05 11:31:11;;;;;;;;;;;;;;;24.22;94.00;101625.00;5074747;28;19977;-65
2021/09/05 11:33:37;;;;;;;;;;;;;;;23.84;100.00;101633.44;5074426;28;19932;-65
2021/09/05 11:36:09;;;;;;;;;;;;;;;23.18;96.73;101636.84;5074178;28;20311;-65
2021/09/05 11:38:39;;;;;;;;;;;;;;;23.20;97.90;101630.06;5074192;28;19928;-65
2021/09/05 11:41:06;;;;;;;;;;;;;;;23.84;95.56;101625.97;5074505;28;20384;-64
2021/09/05 11:43:33;;;;;;;;;;;;;;;23.96;92.52;101628.28;5074372;28;20412;-65
2021/09/05 11:46:08;;;;;;;;;;;;;;;24.40;93.10;101621.84;5074064;28;19958;-65
2021/09/05 11:48:35;;;;;;;;;;;;;;;24.34;90.12;101622.59;5074242;28;20434;-64
2021/09/05 11:51:02;;;;;;;;;;;;;;;24.69;84.88;101623.69;5074101;28;20015;-65
2021/09/05 11:53:30;;;;;;;;;;;;;;;24.72;86.21;101622.44;5074040;28;19931;-65
2021/09/05 11:55:58;;;;;;;;;;;;;;;24.58;85.21;101626.94;5073844;28;19932;-65
2021/09/05 11:58:26;;;;;;;;;;;;;;;24.81;83.10;101623.16;5074053;28;19977;-65
2021/09/05 12:00:55;;;;;;;;;;;;;;;25.15;83.57;101613.25;5073931;28;20396;-64
2021/09/05 12:03:23;;;;;;;;;;;;;;;25.09;82.43;101620.44;5073838;28;19925;-65
2021/09/05 12:05:53;;;;;;;;;;;;;;;25.23;80.06;101618.66;5073889;28;19925;-64
2021/09/05 12:08:25;;;;;;;;;;;;;;;24.86;79.41;101607.63;5073367;28;19966;-65
2021/09/05 12:11:06;;;;;;;;;;;;;;;25.32;76.91;101611.91;5073951;28;19928;-65
2021/09/05 12:13:46;;;;;;;;;;;;;;;25.74;80.79;101620.34;5073381;28;20022;-64
2021/09/05 12:16:19;;;;;;;;;;;;;;;26.27;73.91;101610.59;5072872;28;20461;-65
2021/09/05 12:18:58;;;;;;;;;;;;;;;25.06;73.19;101610.59;5073560;28;20388;-65
2021/09/05 12:21:29;;;;;;;;;;;;;;;25.66;78.99;101610.22;5073848;28;20001;-65
2021/09/05 12:23:56;;;;;;;;;;;;;;;25.92;72.15;101605.03;5073680;28;19924;-65
2021/09/05 12:26:24;;;;;;;;;;;;;;;25.91;68.89;101606.97;5055060;28;19978;-65
2021/09/05 12:28:57;;;;;;;;;;;;;;;26.23;75.54;101608.22;5073427;28;20346;-65
2021/09/05 12:31:37;;;;;;;;;;;;;;;26.46;75.66;101608.97;5073097;28;20022;-65
2021/09/05 12:34:03;;;;;;;;;;;;;;;25.79;70.40;101615.03;5073302;28;20015;-65
2021/09/05 12:36:31;;;;;;;;;;;;;;;25.33;77.81;101609.97;5073065;28;19931;-65
2021/09/05 12:38:59;;;;;;;;;;;;;;;24.82;74.95;101609.06;5073382;28;20023;-65
2021/09/05 12:41:28;;;;;;;;;;;;;;;24.71;77.63;101606.84;5073412;28;19931;-65
2021/09/05 12:43:55;;;;;;;;;;;;;;;24.68;80.25;101604.44;5055283;28;20402;-66
2021/09/05 12:46:22;;;;;;;;;;;;;;;24.02;84.20;101602.56;5073232;28;20315;-65
2021/09/05 12:48:50;;;;;;;;;;;;;;;23.53;89.21;101604.84;5073018;28;19947;-65
2021/09/05 12:51:18;;;;;;;;;;;;;;;24.07;86.43;101594.53;5072837;28;19931;-65
2021/09/05 12:53:57;;;;;;;;;;;;;;;23.88;85.08;101595.97;5072997;28;20020;-65